createdAt,value
2018-12-12T00:00:15.361Z,1.40
2018-12-12T00:02:43.797Z,1.40
2018-12-12T00:05:12.232Z,1.40
2018-12-12T00:07:40.646Z,1.50
2018-12-12T00:10:13.438Z,1.50
2018-12-12T00:12:42.065Z,1.50
2018-12-12T00:15:10.948Z,1.50
2018-12-12T00:17:39.391Z,1.50
2018-12-12T00:20:08.060Z,1.60
2018-12-12T00:22:36.477Z,1.60
2018-12-12T00:25:05.075Z,1.60
2018-12-12T00:27:33.756Z,1.50
2018-12-12T00:30:02.200Z,1.50
2018-12-12T00:32:30.660Z,1.50
2018-12-12T00:34:59.118Z,1.60
2018-12-12T00:37:27.563Z,1.50
2018-12-12T00:39:56.030Z,1.60
2018-12-12T00:42:24.531Z,1.50
2018-12-12T00:44:53.039Z,1.60
2018-12-12T00:47:21.473Z,1.60
2018-12-12T00:49:50.056Z,1.50
2018-12-12T00:52:18.471Z,1.50
2018-12-12T00:54:47.205Z,1.50
2018-12-12T00:57:15.634Z,1.50
2018-12-12T00:59:44.139Z,1.50
2018-12-12T01:02:12.603Z,1.50
2018-12-12T01:04:41.055Z,1.50
2018-12-12T01:07:09.617Z,1.40
2018-12-12T01:09:38.065Z,1.40
2018-12-12T01:12:10.841Z,1.40
2018-12-12T01:14:39.524Z,1.40
2018-12-12T01:17:08.008Z,1.40
2018-12-12T01:19:36.668Z,1.40
2018-12-12T01:22:05.260Z,1.50
2018-12-12T01:24:33.906Z,1.50
2018-12-12T01:27:02.337Z,1.50
2018-12-12T01:29:30.775Z,1.60
2018-12-12T01:31:59.521Z,1.50
2018-12-12T01:34:27.964Z,1.50
2018-12-12T01:36:56.491Z,1.50
2018-12-12T01:39:24.936Z,1.60
2018-12-12T01:41:53.350Z,1.60
2018-12-12T01:44:21.770Z,1.60
2018-12-12T01:46:50.203Z,1.50
2018-12-12T01:49:18.630Z,1.50
2018-12-12T01:51:47.070Z,1.50
2018-12-12T01:54:15.499Z,1.60
2018-12-12T01:56:43.946Z,1.60
2018-12-12T01:59:12.360Z,1.60
2018-12-12T02:01:40.800Z,1.70
2018-12-12T02:04:09.215Z,1.60
2018-12-12T02:06:37.655Z,1.60
2018-12-12T02:09:06.424Z,1.60
2018-12-12T02:11:34.907Z,1.60
2018-12-12T02:14:03.494Z,1.70
2018-12-12T02:16:31.972Z,1.60
2018-12-12T02:19:00.622Z,1.70
2018-12-12T02:21:29.091Z,1.70
2018-12-12T02:23:57.523Z,1.70
2018-12-12T02:26:25.995Z,1.60
2018-12-12T02:28:55.265Z,1.60
2018-12-12T02:31:23.736Z,1.60
2018-12-12T02:33:52.192Z,1.70
2018-12-12T02:36:20.639Z,1.70
2018-12-12T02:38:49.093Z,1.70
2018-12-12T02:41:17.599Z,1.70
2018-12-12T02:43:46.048Z,1.80
2018-12-12T02:46:14.516Z,1.80
2018-12-12T02:48:42.961Z,1.80
2018-12-12T02:51:11.429Z,1.80
2018-12-12T02:53:39.875Z,1.70
2018-12-12T02:56:08.339Z,1.80
2018-12-12T02:58:36.772Z,1.70
2018-12-12T03:01:05.233Z,1.70
2018-12-12T03:03:33.677Z,1.70
2018-12-12T03:06:02.151Z,1.80
2018-12-12T03:08:30.592Z,1.90
2018-12-12T03:10:59.056Z,1.90
2018-12-12T03:13:27.504Z,1.90
2018-12-12T03:15:55.956Z,1.80
2018-12-12T03:18:24.404Z,1.80
2018-12-12T03:20:52.876Z,1.90
2018-12-12T03:23:21.323Z,1.90
2018-12-12T03:25:49.773Z,1.90
2018-12-12T03:28:18.208Z,1.90
2018-12-12T03:30:46.672Z,1.90
2018-12-12T03:33:15.136Z,1.90
2018-12-12T03:35:43.620Z,2.00
2018-12-12T03:38:12.055Z,2.00
2018-12-12T03:40:40.931Z,2.00
2018-12-12T03:43:09.472Z,1.90
2018-12-12T03:45:37.948Z,1.90
2018-12-12T03:48:06.388Z,2.00
2018-12-12T03:50:34.861Z,2.00
2018-12-12T03:53:03.321Z,2.00
2018-12-12T03:55:31.798Z,2.00
2018-12-12T03:58:00.444Z,2.00
2018-12-12T04:00:28.899Z,1.90
2018-12-12T04:02:57.363Z,1.90
2018-12-12T04:05:25.886Z,1.90
2018-12-12T04:07:54.376Z,2.00
2018-12-12T04:10:22.899Z,2.00
2018-12-12T04:12:51.347Z,2.10
2018-12-12T04:15:19.840Z,2.00
2018-12-12T04:17:48.274Z,2.10
2018-12-12T04:20:16.711Z,2.10
2018-12-12T04:22:45.183Z,2.00
2018-12-12T04:25:13.756Z,2.00
2018-12-12T04:27:42.220Z,2.00
2018-12-12T04:30:10.678Z,1.90
2018-12-12T04:32:39.131Z,2.00
2018-12-12T04:35:07.804Z,2.00
2018-12-12T04:37:36.254Z,2.10
2018-12-12T04:40:05.356Z,2.10
2018-12-12T04:42:33.795Z,2.00
2018-12-12T04:45:02.219Z,1.90
2018-12-12T04:47:30.652Z,1.90
2018-12-12T04:49:59.062Z,1.90
2018-12-12T04:52:27.506Z,2.00
2018-12-12T04:54:55.920Z,2.00
2018-12-12T04:57:24.387Z,1.90
2018-12-12T04:59:52.811Z,1.90
2018-12-12T05:02:26.470Z,1.90
2018-12-12T05:04:55.812Z,1.90
2018-12-12T05:07:24.509Z,1.90
2018-12-12T05:09:53.032Z,1.90
2018-12-12T05:12:21.525Z,1.80
2018-12-12T05:14:49.979Z,1.80
2018-12-12T05:17:18.423Z,1.80
2018-12-12T05:19:46.916Z,1.70
2018-12-12T05:22:15.388Z,1.70
2018-12-12T05:24:43.903Z,1.70
2018-12-12T05:27:12.476Z,1.70
2018-12-12T05:29:41.004Z,1.70
2018-12-12T05:32:09.446Z,1.70
2018-12-12T05:34:37.984Z,1.70
2018-12-12T05:37:06.422Z,1.70
2018-12-12T05:39:34.848Z,1.70
2018-12-12T05:42:03.287Z,1.70
2018-12-12T05:44:31.714Z,1.70
2018-12-12T05:47:00.129Z,1.70
2018-12-12T05:49:28.552Z,1.70
2018-12-12T05:51:57.004Z,1.70
2018-12-12T05:54:25.429Z,1.80
2018-12-12T05:56:53.891Z,1.80
2018-12-12T05:59:22.319Z,1.80
2018-12-12T06:01:50.776Z,1.80
2018-12-12T06:04:19.357Z,1.90
2018-12-12T06:06:47.875Z,1.90
2018-12-12T06:09:16.330Z,1.80
2018-12-12T06:11:44.808Z,1.70
2018-12-12T06:14:13.244Z,1.70
2018-12-12T06:16:41.756Z,1.70
2018-12-12T06:19:10.207Z,1.70
2018-12-12T06:21:38.667Z,1.70
2018-12-12T06:24:07.101Z,1.70
2018-12-12T06:26:37.500Z,1.80
2018-12-12T06:29:06.028Z,1.80
2018-12-12T06:31:34.493Z,1.80
2018-12-12T06:34:02.974Z,1.80
2018-12-12T06:36:31.464Z,1.80
2018-12-12T06:38:59.920Z,1.80
2018-12-12T06:41:28.415Z,1.90
2018-12-12T06:43:56.872Z,1.90
2018-12-12T06:46:26.399Z,1.90
2018-12-12T06:48:55.139Z,1.90
2018-12-12T06:51:23.623Z,1.90
2018-12-12T06:53:52.070Z,1.90
2018-12-12T06:56:20.548Z,1.90
2018-12-12T06:58:49.020Z,2.00
2018-12-12T07:01:17.506Z,1.90
2018-12-12T07:03:45.950Z,1.90
2018-12-12T07:06:14.427Z,2.00
2018-12-12T07:08:42.899Z,2.00
2018-12-12T07:11:11.351Z,2.00
2018-12-12T07:13:39.817Z,1.90
2018-12-12T07:16:08.274Z,1.90
2018-12-12T07:18:36.758Z,1.80
2018-12-12T07:21:05.208Z,1.80
2018-12-12T07:23:33.681Z,1.80
2018-12-12T07:26:02.131Z,1.80
2018-12-12T07:28:30.607Z,1.80
2018-12-12T07:30:59.057Z,1.90
2018-12-12T07:33:27.531Z,1.90
2018-12-12T07:35:59.432Z,1.90
2018-12-12T07:38:26.939Z,2.00
2018-12-12T07:40:55.384Z,2.00
2018-12-12T07:43:23.827Z,2.10
2018-12-12T07:45:52.272Z,2.00
2018-12-12T07:48:20.723Z,2.10
2018-12-12T07:50:49.139Z,2.10
2018-12-12T07:53:17.600Z,2.20
2018-12-12T07:55:47.183Z,2.30
2018-12-12T07:58:15.922Z,2.30
2018-12-12T08:00:44.347Z,2.20
2018-12-12T08:03:12.802Z,2.30
2018-12-12T08:05:41.251Z,2.30
2018-12-12T08:08:09.711Z,2.20
2018-12-12T08:10:38.265Z,2.30
2018-12-12T08:13:06.725Z,2.40
2018-12-12T08:15:35.152Z,2.40
2018-12-12T08:18:03.828Z,2.40
2018-12-12T08:20:32.385Z,2.50
2018-12-12T08:23:01.147Z,2.50
2018-12-12T08:25:30.000Z,2.60
2018-12-12T08:27:58.447Z,2.60
2018-12-12T08:30:26.881Z,2.60
2018-12-12T08:32:55.345Z,2.60
2018-12-12T08:35:23.774Z,2.60
2018-12-12T08:37:52.240Z,2.80
2018-12-12T08:40:20.667Z,2.70
2018-12-12T08:42:49.135Z,2.70
2018-12-12T08:45:17.546Z,2.70
2018-12-12T08:47:45.995Z,2.70
2018-12-12T08:50:14.433Z,2.70
2018-12-12T08:52:42.923Z,2.70
2018-12-12T08:55:17.493Z,2.80
2018-12-12T08:57:41.975Z,2.80
2018-12-12T09:00:10.541Z,2.80
2018-12-12T09:02:39.001Z,2.90
2018-12-12T09:05:07.451Z,3.00
2018-12-12T09:07:35.902Z,3.00
2018-12-12T09:10:05.751Z,3.10
2018-12-12T09:12:34.208Z,3.10
2018-12-12T09:15:02.682Z,3.10
2018-12-12T09:17:31.149Z,3.10
2018-12-12T09:19:59.586Z,3.10
2018-12-12T09:22:28.066Z,3.10
2018-12-12T09:24:56.528Z,3.00
2018-12-12T09:27:24.965Z,3.10
2018-12-12T09:29:53.423Z,3.20
2018-12-12T09:32:21.883Z,3.10
2018-12-12T09:34:50.334Z,3.00
2018-12-12T09:37:18.864Z,3.00
2018-12-12T09:39:47.336Z,3.00
2018-12-12T09:42:15.754Z,3.10
2018-12-12T09:44:44.227Z,3.00
2018-12-12T09:47:12.656Z,3.00
2018-12-12T09:49:41.142Z,2.80
2018-12-12T09:52:09.571Z,2.80
2018-12-12T09:54:38.011Z,2.80
2018-12-12T09:57:06.441Z,3.00
2018-12-12T09:59:34.932Z,3.10
2018-12-12T10:02:03.363Z,3.30
2018-12-12T10:04:31.799Z,3.20
2018-12-12T10:07:00.207Z,3.10
2018-12-12T10:09:28.691Z,3.00
2018-12-12T10:11:57.129Z,2.90
2018-12-12T10:14:25.655Z,2.90
2018-12-12T10:16:54.092Z,3.00
2018-12-12T10:19:22.534Z,3.10
2018-12-12T10:21:51.200Z,3.10
2018-12-12T10:24:19.956Z,3.20
2018-12-12T10:26:48.391Z,3.10
2018-12-12T10:29:16.855Z,3.20
2018-12-12T10:31:45.283Z,3.30
2018-12-12T10:34:13.794Z,3.20
2018-12-12T10:36:42.263Z,3.40
2018-12-12T10:39:10.742Z,3.60
2018-12-12T10:41:39.199Z,3.60
2018-12-12T10:44:07.675Z,3.60
2018-12-12T10:46:36.123Z,3.70
2018-12-12T10:49:04.599Z,3.60
2018-12-12T10:51:33.060Z,3.40
2018-12-12T10:54:01.529Z,3.50
2018-12-12T10:56:30.000Z,3.40
2018-12-12T10:58:58.447Z,3.40
2018-12-12T11:01:30.019Z,3.50
2018-12-12T11:03:58.591Z,3.40
2018-12-12T11:06:27.061Z,3.40
2018-12-12T11:08:55.555Z,3.40
2018-12-12T11:11:24.019Z,3.40
2018-12-12T11:13:52.475Z,3.40
2018-12-12T11:16:20.916Z,3.40
2018-12-12T11:18:49.383Z,3.50
2018-12-12T11:21:17.815Z,3.70
2018-12-12T11:23:46.275Z,3.60
2018-12-12T11:26:14.727Z,3.60
2018-12-12T11:28:43.186Z,3.50
2018-12-12T11:31:11.707Z,3.70
2018-12-12T11:33:40.197Z,3.60
2018-12-12T11:36:08.620Z,3.70
2018-12-12T11:38:37.083Z,3.90
2018-12-12T11:41:05.499Z,4.00
2018-12-12T11:43:33.958Z,4.00
2018-12-12T11:46:02.402Z,4.10
2018-12-12T11:48:30.846Z,4.10
2018-12-12T11:50:59.264Z,4.10
2018-12-12T11:53:27.769Z,4.10
2018-12-12T11:55:56.195Z,4.10
2018-12-12T11:58:24.691Z,4.10
2018-12-12T12:00:53.134Z,3.80
2018-12-12T12:03:21.579Z,3.80
2018-12-12T12:05:50.181Z,3.80
2018-12-12T12:08:18.598Z,3.70
2018-12-12T12:10:47.101Z,3.60
2018-12-12T12:13:15.557Z,3.60
2018-12-12T12:15:44.020Z,3.70
2018-12-12T12:18:12.441Z,3.70
2018-12-12T12:20:40.898Z,3.60
2018-12-12T12:23:09.339Z,3.60
2018-12-12T12:25:37.814Z,3.50
2018-12-12T12:28:06.240Z,3.50
2018-12-12T12:30:34.743Z,3.50
2018-12-12T12:33:03.187Z,3.40
2018-12-12T12:35:31.635Z,3.40
2018-12-12T12:38:00.057Z,3.60
2018-12-12T12:40:28.636Z,3.60
2018-12-12T12:42:57.083Z,3.70
2018-12-12T12:45:25.521Z,3.80
2018-12-12T12:47:53.971Z,3.90
2018-12-12T12:50:22.534Z,4.20
2018-12-12T12:52:50.961Z,4.00
2018-12-12T12:55:19.471Z,4.10
2018-12-12T12:57:47.919Z,4.10
2018-12-12T13:00:16.387Z,4.10
2018-12-12T13:02:44.826Z,4.10
2018-12-12T13:05:13.279Z,4.00
2018-12-12T13:07:41.808Z,4.00
2018-12-12T13:10:11.684Z,4.00
2018-12-12T13:12:40.390Z,4.00
2018-12-12T13:15:08.881Z,3.90
2018-12-12T13:17:37.319Z,4.00
2018-12-12T13:20:06.514Z,4.00
2018-12-12T13:22:34.959Z,3.90
2018-12-12T13:25:03.591Z,4.00
2018-12-12T13:27:32.139Z,3.80
2018-12-12T13:30:00.616Z,3.80
2018-12-12T13:32:29.082Z,3.80
2018-12-12T13:34:57.544Z,3.80
2018-12-12T13:37:26.010Z,3.70
2018-12-12T13:39:54.475Z,3.80
2018-12-12T13:42:22.915Z,3.80
2018-12-12T13:44:51.403Z,3.90
2018-12-12T13:47:19.886Z,3.90
2018-12-12T13:49:48.367Z,3.90
2018-12-12T13:52:16.896Z,4.00
2018-12-12T13:54:45.371Z,4.00
2018-12-12T13:57:13.839Z,4.00
2018-12-12T13:59:42.399Z,3.90
2018-12-12T14:02:10.859Z,4.00
2018-12-12T14:04:39.326Z,3.90
2018-12-12T14:07:07.803Z,3.80
2018-12-12T14:09:36.278Z,3.70
2018-12-12T14:12:04.752Z,3.70
2018-12-12T14:14:33.188Z,3.70
2018-12-12T14:17:01.679Z,3.70
2018-12-12T14:19:30.119Z,3.70
2018-12-12T14:21:58.602Z,3.70
2018-12-12T14:24:27.060Z,3.60
2018-12-12T14:26:55.522Z,3.50
2018-12-12T14:29:23.955Z,3.50
2018-12-12T14:31:52.474Z,3.50
2018-12-12T14:34:20.924Z,3.50
2018-12-12T14:36:49.389Z,3.50
2018-12-12T14:39:17.838Z,3.50
2018-12-12T14:41:46.294Z,3.50
2018-12-12T14:44:14.743Z,3.50
2018-12-12T14:46:43.256Z,3.50
2018-12-12T14:49:11.704Z,3.50
2018-12-12T14:51:40.160Z,3.30
2018-12-12T14:54:08.593Z,3.40
2018-12-12T14:56:37.071Z,3.40
2018-12-12T14:59:05.529Z,3.40
2018-12-12T15:01:33.979Z,3.30
2018-12-12T15:04:02.402Z,3.30
2018-12-12T15:06:30.915Z,3.30
2018-12-12T15:08:59.369Z,3.30
2018-12-12T15:11:27.816Z,3.40
2018-12-12T15:13:56.256Z,3.30
2018-12-12T15:16:24.728Z,3.30
2018-12-12T15:18:53.167Z,3.30
2018-12-12T15:21:25.776Z,3.30
2018-12-12T15:23:52.082Z,3.30
2018-12-12T15:26:20.583Z,3.30
2018-12-12T15:28:49.047Z,3.40
2018-12-12T15:31:17.530Z,3.40
2018-12-12T15:33:45.988Z,3.40
2018-12-12T15:36:14.498Z,3.40
2018-12-12T15:38:42.972Z,3.40
2018-12-12T15:41:11.474Z,3.30
2018-12-12T15:43:40.041Z,3.40
2018-12-12T15:46:08.503Z,3.30
2018-12-12T15:48:36.956Z,3.20
2018-12-12T15:51:05.426Z,3.20
2018-12-12T15:53:33.875Z,3.10
2018-12-12T15:56:02.368Z,3.10
2018-12-12T15:58:30.806Z,3.20
2018-12-12T16:00:59.339Z,3.20
2018-12-12T16:03:27.766Z,3.10
2018-12-12T16:05:56.234Z,3.20
2018-12-12T16:08:24.682Z,3.00
2018-12-12T16:10:53.159Z,3.00
2018-12-12T16:13:21.630Z,3.00
2018-12-12T16:15:50.179Z,3.00
2018-12-12T16:18:18.671Z,3.10
2018-12-12T16:20:47.149Z,3.00
2018-12-12T16:23:15.584Z,3.00
2018-12-12T16:25:44.159Z,3.00
2018-12-12T16:28:12.620Z,3.00
2018-12-12T16:30:41.073Z,3.00
2018-12-12T16:33:09.663Z,3.00
2018-12-12T16:35:38.103Z,3.10
2018-12-12T16:38:06.551Z,3.10
2018-12-12T16:40:35.047Z,3.20
2018-12-12T16:43:03.499Z,3.20
2018-12-12T16:45:31.963Z,3.20
2018-12-12T16:48:00.415Z,3.20
2018-12-12T16:50:28.851Z,3.20
2018-12-12T16:52:57.312Z,3.20
2018-12-12T16:55:25.781Z,3.10
2018-12-12T16:57:54.253Z,3.10
2018-12-12T17:00:22.693Z,3.10
2018-12-12T17:02:51.143Z,3.10
2018-12-12T17:05:19.565Z,3.10
2018-12-12T17:07:48.020Z,3.10
2018-12-12T17:10:16.462Z,3.10
2018-12-12T17:12:44.926Z,3.20
2018-12-12T17:15:13.393Z,3.20
2018-12-12T17:17:41.847Z,3.10
2018-12-12T17:20:10.307Z,3.00
2018-12-12T17:22:38.781Z,3.10
2018-12-12T17:25:07.451Z,3.10
2018-12-12T17:27:35.891Z,3.10
2018-12-12T17:30:05.433Z,3.10
2018-12-12T17:32:34.000Z,3.20
2018-12-12T17:35:08.694Z,3.10
2018-12-12T17:37:32.972Z,3.10
2018-12-12T17:40:01.418Z,3.20
2018-12-12T17:42:29.887Z,3.20
2018-12-12T17:44:58.356Z,3.20
2018-12-12T17:47:26.879Z,3.20
2018-12-12T17:49:55.323Z,3.20
2018-12-12T17:52:23.818Z,3.20
2018-12-12T17:54:52.315Z,3.10
2018-12-12T17:57:20.787Z,3.20
2018-12-12T17:59:49.255Z,3.20
2018-12-12T18:02:17.733Z,3.20
2018-12-12T18:04:46.226Z,3.10
2018-12-12T18:07:14.703Z,3.10
2018-12-12T18:09:43.155Z,3.10
2018-12-12T18:12:11.767Z,3.10
2018-12-12T18:14:40.224Z,3.20
2018-12-12T18:17:08.690Z,3.10
2018-12-12T18:19:37.135Z,3.10
2018-12-12T18:22:05.623Z,3.10
2018-12-12T18:24:34.123Z,3.00
2018-12-12T18:27:03.201Z,3.00
2018-12-12T18:29:31.972Z,3.00
2018-12-12T18:32:00.470Z,3.00
2018-12-12T18:34:28.884Z,3.10
2018-12-12T18:36:57.316Z,3.00
2018-12-12T18:39:25.792Z,2.90
2018-12-12T18:41:54.235Z,2.90
2018-12-12T18:44:22.686Z,3.00
2018-12-12T18:46:51.112Z,2.90
2018-12-12T18:49:19.576Z,3.00
2018-12-12T18:51:48.003Z,3.00
2018-12-12T18:54:16.481Z,3.00
2018-12-12T18:56:44.897Z,2.90
2018-12-12T18:59:13.588Z,2.90
2018-12-12T19:01:42.043Z,2.90
2018-12-12T19:04:10.517Z,2.90
2018-12-12T19:06:38.956Z,2.90
2018-12-12T19:09:07.620Z,2.90
2018-12-12T19:11:36.037Z,2.80
2018-12-12T19:14:04.508Z,2.80
2018-12-12T19:16:32.955Z,2.80
2018-12-12T19:19:01.414Z,2.80
2018-12-12T19:21:29.850Z,2.80
2018-12-12T19:23:58.324Z,2.80
2018-12-12T19:26:26.810Z,2.80
2018-12-12T19:28:55.291Z,2.70
2018-12-12T19:31:23.731Z,2.70
2018-12-12T19:33:52.237Z,2.70
2018-12-12T19:36:20.682Z,2.60
2018-12-12T19:38:49.150Z,2.60
2018-12-12T19:41:17.599Z,2.60
2018-12-12T19:43:46.135Z,2.50
2018-12-12T19:46:14.567Z,2.50
2018-12-12T19:48:43.033Z,2.50
2018-12-12T19:51:11.496Z,2.50
2018-12-12T19:53:39.995Z,2.60
2018-12-12T19:56:08.444Z,2.60
2018-12-12T19:58:36.910Z,2.60
2018-12-12T20:01:05.555Z,2.50
2018-12-12T20:03:34.030Z,2.70
2018-12-12T20:06:02.532Z,2.70
2018-12-12T20:08:31.144Z,2.60
2018-12-12T20:10:59.608Z,2.60
2018-12-12T20:13:28.079Z,2.60
2018-12-12T20:15:56.520Z,2.70
2018-12-12T20:18:24.993Z,2.70
2018-12-12T20:20:53.483Z,2.70
2018-12-12T20:23:22.032Z,2.70
2018-12-12T20:25:50.505Z,2.70
2018-12-12T20:28:20.255Z,2.70
2018-12-12T20:30:48.742Z,2.70
2018-12-12T20:33:17.199Z,2.70
2018-12-12T20:35:48.254Z,2.70
2018-12-12T20:38:16.176Z,2.70
2018-12-12T20:40:44.623Z,2.70
2018-12-12T20:43:13.338Z,2.70
2018-12-12T20:45:41.809Z,2.70
2018-12-12T20:48:10.236Z,2.70
2018-12-12T20:50:38.692Z,2.70
2018-12-12T20:53:07.126Z,2.70
2018-12-12T20:55:35.578Z,2.70
2018-12-12T20:58:04.047Z,2.60
2018-12-12T21:00:32.518Z,2.60
2018-12-12T21:03:00.969Z,2.60
2018-12-12T21:05:29.470Z,2.60
2018-12-12T21:07:57.907Z,2.60
2018-12-12T21:10:26.371Z,2.60
2018-12-12T21:12:54.794Z,2.50
2018-12-12T21:15:23.234Z,2.50
2018-12-12T21:17:51.644Z,2.40
2018-12-12T21:20:20.087Z,2.50
2018-12-12T21:22:48.516Z,2.40
2018-12-12T21:25:16.940Z,2.40
2018-12-12T21:27:45.331Z,2.30
2018-12-12T21:30:17.207Z,2.30
2018-12-12T21:32:44.263Z,2.30
2018-12-12T21:35:12.724Z,2.30
2018-12-12T21:37:41.168Z,2.20
2018-12-12T21:40:09.821Z,2.20
2018-12-12T21:42:38.284Z,2.10
2018-12-12T21:45:06.751Z,2.10
2018-12-12T21:47:35.194Z,2.00
2018-12-12T21:50:03.920Z,2.00
2018-12-12T21:52:32.338Z,1.90
2018-12-12T21:55:00.794Z,1.90
2018-12-12T21:57:29.259Z,1.90
2018-12-12T21:59:57.755Z,1.80
2018-12-12T22:02:26.186Z,1.80
2018-12-12T22:04:54.642Z,1.70
2018-12-12T22:07:23.083Z,1.70
2018-12-12T22:09:51.537Z,1.70
2018-12-12T22:12:19.970Z,1.60
2018-12-12T22:14:48.411Z,1.50
2018-12-12T22:17:16.856Z,1.40
2018-12-12T22:19:45.314Z,1.40
2018-12-12T22:22:13.760Z,1.30
2018-12-12T22:24:42.195Z,1.30
2018-12-12T22:27:10.652Z,1.20
2018-12-12T22:29:39.189Z,1.20
2018-12-12T22:32:07.680Z,1.10
2018-12-12T22:34:36.146Z,1.10
2018-12-12T22:37:04.617Z,1.10
2018-12-12T22:39:33.104Z,1.00
2018-12-12T22:42:01.610Z,1.00
2018-12-12T22:44:30.093Z,1.00
2018-12-12T22:46:58.600Z,0.90
2018-12-12T22:49:27.088Z,0.90
2018-12-12T22:51:55.545Z,0.90
2018-12-12T22:54:23.987Z,0.90
2018-12-12T22:56:52.491Z,0.80
2018-12-12T22:59:20.985Z,0.80
2018-12-12T23:01:49.544Z,0.80
2018-12-12T23:04:18.084Z,0.80
2018-12-12T23:06:46.629Z,0.70
2018-12-12T23:09:15.095Z,0.70
2018-12-12T23:11:43.716Z,0.60
2018-12-12T23:14:12.168Z,0.70
2018-12-12T23:16:40.647Z,0.70
2018-12-12T23:19:09.132Z,0.60
2018-12-12T23:21:37.648Z,0.60
2018-12-12T23:24:06.102Z,0.60
2018-12-12T23:26:34.648Z,0.60
2018-12-12T23:29:03.184Z,0.60
2018-12-12T23:31:31.668Z,0.50
2018-12-12T23:34:00.143Z,0.50
2018-12-12T23:36:28.628Z,0.60
2018-12-12T23:38:57.076Z,0.50
2018-12-12T23:41:25.569Z,0.50
2018-12-12T23:43:54.091Z,0.50
2018-12-12T23:46:22.632Z,0.50
2018-12-12T23:48:51.109Z,0.50
2018-12-12T23:51:19.573Z,0.50
2018-12-12T23:53:48.015Z,0.50
2018-12-12T23:56:16.554Z,0.50
2018-12-12T23:58:45.023Z,0.50
